sensor_id;sensor_type;location;lat;lon;timestamp;pressure;altitude;pressure_sealevel;temperature
54746;BMP180;40640;48.130;11.356;2023-09-19T00:03:53;95348.00;;;17.10
54746;BMP180;40640;48.130;11.356;2023-09-19T00:07:57;95346.00;;;17.10
54746;BMP180;40640;48.130;11.356;2023-09-19T00:12:01;95352.00;;;17.10
54746;BMP180;40640;48.130;11.356;2023-09-19T00:16:09;95359.00;;;17.10
54746;BMP180;40640;48.130;11.356;2023-09-19T00:20:14;95352.00;;;17.20
54746;BMP180;40640;48.130;11.356;2023-09-19T00:24:19;95360.00;;;17.20
54746;BMP180;40640;48.130;11.356;2023-09-19T00:28:22;95361.00;;;17.20
54746;BMP180;40640;48.130;11.356;2023-09-19T00:32:26;95365.00;;;17.30
54746;BMP180;40640;48.130;11.356;2023-09-19T00:36:35;95361.00;;;17.30
54746;BMP180;40640;48.130;11.356;2023-09-19T00:40:43;95366.00;;;17.40
54746;BMP180;40640;48.130;11.356;2023-09-19T00:44:46;95379.00;;;17.30
54746;BMP180;40640;48.130;11.356;2023-09-19T00:48:54;95370.00;;;17.30
54746;BMP180;40640;48.130;11.356;2023-09-19T00:52:59;95387.00;;;17.30
54746;BMP180;40640;48.130;11.356;2023-09-19T00:57:02;95388.00;;;17.30
54746;BMP180;40640;48.130;11.356;2023-09-19T01:01:06;95386.00;;;17.30
54746;BMP180;40640;48.130;11.356;2023-09-19T01:05:12;95384.00;;;17.40
54746;BMP180;40640;48.130;11.356;2023-09-19T01:09:15;95397.00;;;17.40
54746;BMP180;40640;48.130;11.356;2023-09-19T01:13:22;95394.00;;;17.40
54746;BMP180;40640;48.130;11.356;2023-09-19T01:17:31;95393.00;;;17.40
54746;BMP180;40640;48.130;11.356;2023-09-19T01:21:42;95406.00;;;17.40
54746;BMP180;40640;48.130;11.356;2023-09-19T01:26:07;95418.00;;;17.50
54746;BMP180;40640;48.130;11.356;2023-09-19T01:30:14;95414.00;;;17.40
54746;BMP180;40640;48.130;11.356;2023-09-19T01:34:20;95412.00;;;17.40
54746;BMP180;40640;48.130;11.356;2023-09-19T01:38:23;95416.00;;;17.50
54746;BMP180;40640;48.130;11.356;2023-09-19T01:42:34;95414.00;;;17.50
54746;BMP180;40640;48.130;11.356;2023-09-19T01:46:41;95429.00;;;17.50
54746;BMP180;40640;48.130;11.356;2023-09-19T01:50:49;95422.00;;;17.60
54746;BMP180;40640;48.130;11.356;2023-09-19T01:55:02;95415.00;;;17.50
54746;BMP180;40640;48.130;11.356;2023-09-19T01:59:13;95418.00;;;17.50
54746;BMP180;40640;48.130;11.356;2023-09-19T02:03:18;95421.00;;;17.50
54746;BMP180;40640;48.130;11.356;2023-09-19T02:07:24;95424.00;;;17.50
54746;BMP180;40640;48.130;11.356;2023-09-19T02:11:29;95421.00;;;17.40
54746;BMP180;40640;48.130;11.356;2023-09-19T02:15:32;95420.00;;;17.50
54746;BMP180;40640;48.130;11.356;2023-09-19T02:19:37;95432.00;;;17.40
54746;BMP180;40640;48.130;11.356;2023-09-19T02:23:41;95429.00;;;17.40
54746;BMP180;40640;48.130;11.356;2023-09-19T02:27:43;95428.00;;;17.30
54746;BMP180;40640;48.130;11.356;2023-09-19T02:31:48;95431.00;;;17.40
54746;BMP180;40640;48.130;11.356;2023-09-19T02:35:56;95430.00;;;17.30
54746;BMP180;40640;48.130;11.356;2023-09-19T02:40:00;95438.00;;;17.30
54746;BMP180;40640;48.130;11.356;2023-09-19T02:44:03;95443.00;;;17.30
54746;BMP180;40640;48.130;11.356;2023-09-19T02:48:08;95437.00;;;17.30
54746;BMP180;40640;48.130;11.356;2023-09-19T02:52:15;95446.00;;;17.30
54746;BMP180;40640;48.130;11.356;2023-09-19T02:56:18;95437.00;;;17.30
54746;BMP180;40640;48.130;11.356;2023-09-19T03:00:21;95434.00;;;17.30
54746;BMP180;40640;48.130;11.356;2023-09-19T03:04:25;95439.00;;;17.30
54746;BMP180;40640;48.130;11.356;2023-09-19T03:08:30;95440.00;;;17.30
54746;BMP180;40640;48.130;11.356;2023-09-19T03:12:38;95440.00;;;17.20
54746;BMP180;40640;48.130;11.356;2023-09-19T03:16:42;95442.00;;;17.30
54746;BMP180;40640;48.130;11.356;2023-09-19T03:20:52;95433.00;;;17.30
54746;BMP180;40640;48.130;11.356;2023-09-19T03:24:58;95440.00;;;17.20
54746;BMP180;40640;48.130;11.356;2023-09-19T03:29:03;95435.00;;;17.20
54746;BMP180;40640;48.130;11.356;2023-09-19T03:33:09;95442.00;;;17.20
54746;BMP180;40640;48.130;11.356;2023-09-19T03:37:14;95438.00;;;17.10
54746;BMP180;40640;48.130;11.356;2023-09-19T03:41:19;95447.00;;;17.20
54746;BMP180;40640;48.130;11.356;2023-09-19T03:45:22;95444.00;;;17.10
54746;BMP180;40640;48.130;11.356;2023-09-19T03:49:26;95441.00;;;17.20
54746;BMP180;40640;48.130;11.356;2023-09-19T03:53:29;95448.00;;;17.20
54746;BMP180;40640;48.130;11.356;2023-09-19T03:57:34;95448.00;;;17.20
54746;BMP180;40640;48.130;11.356;2023-09-19T04:01:38;95460.00;;;17.20
54746;BMP180;40640;48.130;11.356;2023-09-19T04:05:42;95466.00;;;17.30
54746;BMP180;40640;48.130;11.356;2023-09-19T04:09:45;95473.00;;;17.20
54746;BMP180;40640;48.130;11.356;2023-09-19T04:13:51;95476.00;;;17.30
54746;BMP180;40640;48.130;11.356;2023-09-19T04:17:55;95467.00;;;17.20
54746;BMP180;40640;48.130;11.356;2023-09-19T04:21:58;95479.00;;;17.20
54746;BMP180;40640;48.130;11.356;2023-09-19T04:26:01;95483.00;;;17.20
54746;BMP180;40640;48.130;11.356;2023-09-19T04:30:08;95478.00;;;17.10
54746;BMP180;40640;48.130;11.356;2023-09-19T04:34:13;95490.00;;;17.10
54746;BMP180;40640;48.130;11.356;2023-09-19T04:38:19;95489.00;;;17.10
54746;BMP180;40640;48.130;11.356;2023-09-19T04:42:22;95500.00;;;17.10
54746;BMP180;40640;48.130;11.356;2023-09-19T04:46:27;95490.00;;;17.10
54746;BMP180;40640;48.130;11.356;2023-09-19T04:50:30;95500.00;;;17.10
54746;BMP180;40640;48.130;11.356;2023-09-19T04:54:33;95500.00;;;17.10
54746;BMP180;40640;48.130;11.356;2023-09-19T04:58:36;95504.00;;;17.10
54746;BMP180;40640;48.130;11.356;2023-09-19T05:02:40;95508.00;;;17.00
54746;BMP180;40640;48.130;11.356;2023-09-19T05:06:44;95511.00;;;17.00
54746;BMP180;40640;48.130;11.356;2023-09-19T05:10:47;95526.00;;;17.00
54746;BMP180;40640;48.130;11.356;2023-09-19T05:14:50;95537.00;;;17.10
54746;BMP180;40640;48.130;11.356;2023-09-19T05:18:55;95539.00;;;17.00
54746;BMP180;40640;48.130;11.356;2023-09-19T05:23:00;95540.00;;;17.00
54746;BMP180;40640;48.130;11.356;2023-09-19T05:27:09;95548.00;;;17.00
54746;BMP180;40640;48.130;11.356;2023-09-19T05:31:12;95557.00;;;16.90
54746;BMP180;40640;48.130;11.356;2023-09-19T05:35:17;95559.00;;;16.90
54746;BMP180;40640;48.130;11.356;2023-09-19T05:39:20;95564.00;;;17.00
54746;BMP180;40640;48.130;11.356;2023-09-19T05:43:24;95561.00;;;17.00
54746;BMP180;40640;48.130;11.356;2023-09-19T05:47:27;95559.00;;;16.90
54746;BMP180;40640;48.130;11.356;2023-09-19T05:51:32;95564.00;;;17.00
54746;BMP180;40640;48.130;11.356;2023-09-19T05:55:34;95558.00;;;17.10
54746;BMP180;40640;48.130;11.356;2023-09-19T05:59:38;95565.00;;;17.20
54746;BMP180;40640;48.130;11.356;2023-09-19T06:03:41;95573.00;;;17.20
54746;BMP180;40640;48.130;11.356;2023-09-19T06:07:46;95572.00;;;17.20
54746;BMP180;40640;48.130;11.356;2023-09-19T06:11:49;95579.00;;;17.30
54746;BMP180;40640;48.130;11.356;2023-09-19T06:15:53;95574.00;;;17.30
54746;BMP180;40640;48.130;11.356;2023-09-19T06:19:55;95579.00;;;17.40
54746;BMP180;40640;48.130;11.356;2023-09-19T06:24:00;95582.00;;;17.40
54746;BMP180;40640;48.130;11.356;2023-09-19T06:28:03;95588.00;;;17.50
54746;BMP180;40640;48.130;11.356;2023-09-19T06:32:07;95590.00;;;17.60
54746;BMP180;40640;48.130;11.356;2023-09-19T06:36:11;95598.00;;;17.80
54746;BMP180;40640;48.130;11.356;2023-09-19T06:40:16;95601.00;;;17.90
54746;BMP180;40640;48.130;11.356;2023-09-19T06:44:19;95605.00;;;18.10
54746;BMP180;40640;48.130;11.356;2023-09-19T06:48:23;95606.00;;;18.40
54746;BMP180;40640;48.130;11.356;2023-09-19T06:52:28;95606.00;;;18.30
54746;BMP180;40640;48.130;11.356;2023-09-19T06:56:32;95617.00;;;18.10
54746;BMP180;40640;48.130;11.356;2023-09-19T07:00:35;95610.00;;;18.20
54746;BMP180;40640;48.130;11.356;2023-09-19T07:04:39;95617.00;;;18.20
54746;BMP180;40640;48.130;11.356;2023-09-19T07:08:42;95612.00;;;18.60
54746;BMP180;40640;48.130;11.356;2023-09-19T07:12:54;95621.00;;;18.90
54746;BMP180;40640;48.130;11.356;2023-09-19T07:16:57;95630.00;;;19.30
54746;BMP180;40640;48.130;11.356;2023-09-19T07:21:01;95630.00;;;20.90
54746;BMP180;40640;48.130;11.356;2023-09-19T07:25:07;95623.00;;;21.30
54746;BMP180;40640;48.130;11.356;2023-09-19T07:29:11;95631.00;;;21.30
54746;BMP180;40640;48.130;11.356;2023-09-19T07:33:14;95630.00;;;20.70
54746;BMP180;40640;48.130;11.356;2023-09-19T07:37:17;95634.00;;;22.60
54746;BMP180;40640;48.130;11.356;2023-09-19T07:41:20;95634.00;;;22.90
54746;BMP180;40640;48.130;11.356;2023-09-19T07:45:25;95640.00;;;22.60
54746;BMP180;40640;48.130;11.356;2023-09-19T07:49:28;95643.00;;;22.90
54746;BMP180;40640;48.130;11.356;2023-09-19T07:53:31;95648.00;;;22.30
54746;BMP180;40640;48.130;11.356;2023-09-19T07:57:35;95659.00;;;22.00
54746;BMP180;40640;48.130;11.356;2023-09-19T08:01:40;95653.00;;;22.00
54746;BMP180;40640;48.130;11.356;2023-09-19T08:05:46;95648.00;;;21.70
54746;BMP180;40640;48.130;11.356;2023-09-19T08:09:50;95653.00;;;21.60
54746;BMP180;40640;48.130;11.356;2023-09-19T08:13:53;95658.00;;;22.30
54746;BMP180;40640;48.130;11.356;2023-09-19T08:17:57;95649.00;;;26.50
54746;BMP180;40640;48.130;11.356;2023-09-19T08:22:02;95659.00;;;28.90
54746;BMP180;40640;48.130;11.356;2023-09-19T08:26:05;95658.00;;;30.60
54746;BMP180;40640;48.130;11.356;2023-09-19T08:30:10;95652.00;;;33.40
54746;BMP180;40640;48.130;11.356;2023-09-19T08:34:15;95655.00;;;33.90
54746;BMP180;40640;48.130;11.356;2023-09-19T08:38:18;95666.00;;;32.50
54746;BMP180;40640;48.130;11.356;2023-09-19T08:42:21;95660.00;;;31.90
54746;BMP180;40640;48.130;11.356;2023-09-19T08:46:30;95687.00;;;29.30
54746;BMP180;40640;48.130;11.356;2023-09-19T08:50:39;95673.00;;;26.60
54746;BMP180;40640;48.130;11.356;2023-09-19T08:54:47;95681.00;;;25.80
54746;BMP180;40640;48.130;11.356;2023-09-19T08:58:53;95682.00;;;26.10
54746;BMP180;40640;48.130;11.356;2023-09-19T09:02:57;95685.00;;;25.60
54746;BMP180;40640;48.130;11.356;2023-09-19T09:07:03;95687.00;;;29.20
54746;BMP180;40640;48.130;11.356;2023-09-19T09:11:07;95698.00;;;30.00
54746;BMP180;40640;48.130;11.356;2023-09-19T09:15:10;95692.00;;;30.70
54746;BMP180;40640;48.130;11.356;2023-09-19T09:19:18;95691.00;;;31.40
54746;BMP180;40640;48.130;11.356;2023-09-19T09:23:27;95689.00;;;31.60
54746;BMP180;40640;48.130;11.356;2023-09-19T09:27:31;95690.00;;;29.50
54746;BMP180;40640;48.130;11.356;2023-09-19T09:31:35;95694.00;;;28.50
54746;BMP180;40640;48.130;11.356;2023-09-19T09:35:47;95686.00;;;30.30
54746;BMP180;40640;48.130;11.356;2023-09-19T09:39:55;95698.00;;;27.90
54746;BMP180;40640;48.130;11.356;2023-09-19T09:44:12;95705.00;;;26.80
54746;BMP180;40640;48.130;11.356;2023-09-19T09:48:24;95706.00;;;25.60
54746;BMP180;40640;48.130;11.356;2023-09-19T09:52:44;95705.00;;;25.90
54746;BMP180;40640;48.130;11.356;2023-09-19T09:56:58;95709.00;;;25.40
54746;BMP180;40640;48.130;11.356;2023-09-19T10:01:03;95715.00;;;24.80
54746;BMP180;40640;48.130;11.356;2023-09-19T10:05:15;95715.00;;;25.70
54746;BMP180;40640;48.130;11.356;2023-09-19T10:09:23;95720.00;;;26.40
54746;BMP180;40640;48.130;11.356;2023-09-19T10:13:39;95716.00;;;26.20
54746;BMP180;40640;48.130;11.356;2023-09-19T10:17:45;95721.00;;;26.00
54746;BMP180;40640;48.130;11.356;2023-09-19T10:21:49;95719.00;;;24.70
54746;BMP180;40640;48.130;11.356;2023-09-19T10:25:52;95726.00;;;23.90
54746;BMP180;40640;48.130;11.356;2023-09-19T10:29:58;95720.00;;;24.50
54746;BMP180;40640;48.130;11.356;2023-09-19T10:34:02;95718.00;;;24.90
54746;BMP180;40640;48.130;11.356;2023-09-19T10:38:06;95727.00;;;25.80
54746;BMP180;40640;48.130;11.356;2023-09-19T10:42:12;95706.00;;;26.90
54746;BMP180;40640;48.130;11.356;2023-09-19T10:46:20;95714.00;;;25.70
54746;BMP180;40640;48.130;11.356;2023-09-19T10:50:24;95710.00;;;26.20
54746;BMP180;40640;48.130;11.356;2023-09-19T10:54:31;95715.00;;;27.50
54746;BMP180;40640;48.130;11.356;2023-09-19T10:58:35;95715.00;;;27.30
54746;BMP180;40640;48.130;11.356;2023-09-19T11:02:43;95715.00;;;27.90
54746;BMP180;40640;48.130;11.356;2023-09-19T11:06:59;95708.00;;;28.60
54746;BMP180;40640;48.130;11.356;2023-09-19T11:11:43;95706.00;;;29.90
54746;BMP180;40640;48.130;11.356;2023-09-19T11:16:12;95721.00;;;28.30
54746;BMP180;40640;48.130;11.356;2023-09-19T11:20:23;95704.00;;;30.10
54746;BMP180;40640;48.130;11.356;2023-09-19T11:24:28;95703.00;;;28.80
54746;BMP180;40640;48.130;11.356;2023-09-19T11:28:36;95702.00;;;28.60
54746;BMP180;40640;48.130;11.356;2023-09-19T11:33:15;95698.00;;;32.30
54746;BMP180;40640;48.130;11.356;2023-09-19T11:46:57;95705.00;;;34.10
54746;BMP180;40640;48.130;11.356;2023-09-19T11:51:10;95701.00;;;34.20
54746;BMP180;40640;48.130;11.356;2023-09-19T11:55:17;95710.00;;;33.50
54746;BMP180;40640;48.130;11.356;2023-09-19T11:59:24;95705.00;;;32.10
54746;BMP180;40640;48.130;11.356;2023-09-19T12:03:31;95706.00;;;34.30
54746;BMP180;40640;48.130;11.356;2023-09-19T12:07:42;95715.00;;;34.70
54746;BMP180;40640;48.130;11.356;2023-09-19T12:11:46;95704.00;;;33.90
54746;BMP180;40640;48.130;11.356;2023-09-19T12:15:51;95701.00;;;34.20
54746;BMP180;40640;48.130;11.356;2023-09-19T12:19:56;95697.00;;;33.90
54746;BMP180;40640;48.130;11.356;2023-09-19T12:24:04;95689.00;;;35.00
54746;BMP180;40640;48.130;11.356;2023-09-19T12:28:07;95706.00;;;33.10
54746;BMP180;40640;48.130;11.356;2023-09-19T12:32:11;95699.00;;;32.40
54746;BMP180;40640;48.130;11.356;2023-09-19T12:36:22;95705.00;;;33.10
54746;BMP180;40640;48.130;11.356;2023-09-19T12:40:31;95693.00;;;34.10
54746;BMP180;40640;48.130;11.356;2023-09-19T12:44:37;95697.00;;;33.30
54746;BMP180;40640;48.130;11.356;2023-09-19T12:48:41;95697.00;;;33.10
54746;BMP180;40640;48.130;11.356;2023-09-19T12:52:48;95693.00;;;32.90
54746;BMP180;40640;48.130;11.356;2023-09-19T12:56:51;95690.00;;;33.40
54746;BMP180;40640;48.130;11.356;2023-09-19T13:00:56;95693.00;;;33.30
54746;BMP180;40640;48.130;11.356;2023-09-19T13:04:59;95680.00;;;33.70
54746;BMP180;40640;48.130;11.356;2023-09-19T13:09:10;95681.00;;;35.80
54746;BMP180;40640;48.130;11.356;2023-09-19T13:13:24;95685.00;;;35.30
54746;BMP180;40640;48.130;11.356;2023-09-19T13:17:42;95687.00;;;34.40
54746;BMP180;40640;48.130;11.356;2023-09-19T13:21:46;95680.00;;;34.60
54746;BMP180;40640;48.130;11.356;2023-09-19T13:25:54;95695.00;;;33.60
54746;BMP180;40640;48.130;11.356;2023-09-19T13:29:58;95676.00;;;33.00
54746;BMP180;40640;48.130;11.356;2023-09-19T13:34:01;95673.00;;;31.60
54746;BMP180;40640;48.130;11.356;2023-09-19T13:38:04;95685.00;;;31.10
54746;BMP180;40640;48.130;11.356;2023-09-19T13:42:09;95684.00;;;31.40
54746;BMP180;40640;48.130;11.356;2023-09-19T13:46:13;95676.00;;;31.00
54746;BMP180;40640;48.130;11.356;2023-09-19T13:50:18;95674.00;;;30.10
54746;BMP180;40640;48.130;11.356;2023-09-19T13:54:25;95679.00;;;29.20
54746;BMP180;40640;48.130;11.356;2023-09-19T13:58:30;95677.00;;;29.00
54746;BMP180;40640;48.130;11.356;2023-09-19T14:02:35;95671.00;;;29.00
54746;BMP180;40640;48.130;11.356;2023-09-19T14:06:41;95666.00;;;28.80
54746;BMP180;40640;48.130;11.356;2023-09-19T14:10:44;95664.00;;;28.70
54746;BMP180;40640;48.130;11.356;2023-09-19T14:14:49;95658.00;;;28.20
54746;BMP180;40640;48.130;11.356;2023-09-19T14:18:52;95657.00;;;28.20
54746;BMP180;40640;48.130;11.356;2023-09-19T14:22:55;95664.00;;;27.80
54746;BMP180;40640;48.130;11.356;2023-09-19T14:27:01;95646.00;;;27.30
54746;BMP180;40640;48.130;11.356;2023-09-19T14:31:07;95648.00;;;27.30
54746;BMP180;40640;48.130;11.356;2023-09-19T14:35:10;95633.00;;;27.00
54746;BMP180;40640;48.130;11.356;2023-09-19T14:39:15;95639.00;;;26.80
54746;BMP180;40640;48.130;11.356;2023-09-19T14:43:18;95632.00;;;26.40
54746;BMP180;40640;48.130;11.356;2023-09-19T14:47:25;95626.00;;;26.10
54746;BMP180;40640;48.130;11.356;2023-09-19T14:51:30;95624.00;;;26.00
54746;BMP180;40640;48.130;11.356;2023-09-19T14:55:36;95623.00;;;25.80
54746;BMP180;40640;48.130;11.356;2023-09-19T14:59:43;95619.00;;;25.70
54746;BMP180;40640;48.130;11.356;2023-09-19T15:03:47;95621.00;;;25.70
54746;BMP180;40640;48.130;11.356;2023-09-19T15:07:51;95623.00;;;25.60
54746;BMP180;40640;48.130;11.356;2023-09-19T15:11:55;95628.00;;;25.50
54746;BMP180;40640;48.130;11.356;2023-09-19T15:15:59;95623.00;;;25.30
54746;BMP180;40640;48.130;11.356;2023-09-19T15:20:05;95620.00;;;25.10
54746;BMP180;40640;48.130;11.356;2023-09-19T15:24:09;95625.00;;;25.10
54746;BMP180;40640;48.130;11.356;2023-09-19T15:28:12;95628.00;;;25.00
54746;BMP180;40640;48.130;11.356;2023-09-19T15:32:15;95620.00;;;24.90
54746;BMP180;40640;48.130;11.356;2023-09-19T15:36:19;95629.00;;;24.80
54746;BMP180;40640;48.130;11.356;2023-09-19T15:40:22;95620.00;;;24.80
54746;BMP180;40640;48.130;11.356;2023-09-19T15:44:26;95628.00;;;24.60
54746;BMP180;40640;48.130;11.356;2023-09-19T15:48:29;95621.00;;;24.40
54746;BMP180;40640;48.130;11.356;2023-09-19T15:52:33;95625.00;;;24.40
54746;BMP180;40640;48.130;11.356;2023-09-19T15:56:37;95618.00;;;24.30
54746;BMP180;40640;48.130;11.356;2023-09-19T16:00:42;95619.00;;;24.20
54746;BMP180;40640;48.130;11.356;2023-09-19T16:04:46;95615.00;;;24.10
54746;BMP180;40640;48.130;11.356;2023-09-19T16:08:52;95627.00;;;24.10
54746;BMP180;40640;48.130;11.356;2023-09-19T16:12:55;95623.00;;;23.80
54746;BMP180;40640;48.130;11.356;2023-09-19T16:16:58;95626.00;;;23.70
54746;BMP180;40640;48.130;11.356;2023-09-19T16:21:03;95627.00;;;23.60
54746;BMP180;40640;48.130;11.356;2023-09-19T16:25:08;95621.00;;;23.50
54746;BMP180;40640;48.130;11.356;2023-09-19T16:29:13;95628.00;;;23.40
54746;BMP180;40640;48.130;11.356;2023-09-19T16:33:16;95631.00;;;23.40
54746;BMP180;40640;48.130;11.356;2023-09-19T16:37:19;95631.00;;;23.40
54746;BMP180;40640;48.130;11.356;2023-09-19T16:41:24;95630.00;;;23.20
54746;BMP180;40640;48.130;11.356;2023-09-19T16:45:27;95625.00;;;23.10
54746;BMP180;40640;48.130;11.356;2023-09-19T16:49:30;95629.00;;;23.00
54746;BMP180;40640;48.130;11.356;2023-09-19T16:53:33;95637.00;;;22.90
54746;BMP180;40640;48.130;11.356;2023-09-19T16:57:38;95646.00;;;22.70
54746;BMP180;40640;48.130;11.356;2023-09-19T17:01:44;95634.00;;;22.50
54746;BMP180;40640;48.130;11.356;2023-09-19T17:05:47;95637.00;;;22.30
54746;BMP180;40640;48.130;11.356;2023-09-19T17:09:50;95628.00;;;22.20
54746;BMP180;40640;48.130;11.356;2023-09-19T17:13:55;95627.00;;;22.10
54746;BMP180;40640;48.130;11.356;2023-09-19T17:17:59;95615.00;;;22.00
54746;BMP180;40640;48.130;11.356;2023-09-19T17:22:02;95626.00;;;21.90
54746;BMP180;40640;48.130;11.356;2023-09-19T17:26:07;95622.00;;;21.80
54746;BMP180;40640;48.130;11.356;2023-09-19T17:30:13;95624.00;;;21.80
54746;BMP180;40640;48.130;11.356;2023-09-19T17:34:16;95631.00;;;21.60
54746;BMP180;40640;48.130;11.356;2023-09-19T17:38:20;95630.00;;;21.50
54746;BMP180;40640;48.130;11.356;2023-09-19T17:42:24;95633.00;;;21.40
54746;BMP180;40640;48.130;11.356;2023-09-19T17:46:28;95637.00;;;21.30
54746;BMP180;40640;48.130;11.356;2023-09-19T17:50:32;95626.00;;;21.20
54746;BMP180;40640;48.130;11.356;2023-09-19T17:54:34;95640.00;;;21.20
54746;BMP180;40640;48.130;11.356;2023-09-19T17:58:38;95643.00;;;21.00
54746;BMP180;40640;48.130;11.356;2023-09-19T18:02:43;95640.00;;;20.90
54746;BMP180;40640;48.130;11.356;2023-09-19T18:06:46;95655.00;;;20.80
54746;BMP180;40640;48.130;11.356;2023-09-19T18:10:50;95647.00;;;20.60
54746;BMP180;40640;48.130;11.356;2023-09-19T18:14:53;95657.00;;;20.50
54746;BMP180;40640;48.130;11.356;2023-09-19T18:18:57;95656.00;;;20.40
54746;BMP180;40640;48.130;11.356;2023-09-19T18:23:02;95658.00;;;20.30
54746;BMP180;40640;48.130;11.356;2023-09-19T18:27:05;95660.00;;;20.20
54746;BMP180;40640;48.130;11.356;2023-09-19T18:31:09;95664.00;;;20.10
54746;BMP180;40640;48.130;11.356;2023-09-19T18:35:13;95668.00;;;19.90
54746;BMP180;40640;48.130;11.356;2023-09-19T18:39:16;95671.00;;;19.70
54746;BMP180;40640;48.130;11.356;2023-09-19T18:43:21;95665.00;;;19.70
54746;BMP180;40640;48.130;11.356;2023-09-19T18:47:24;95674.00;;;19.70
54746;BMP180;40640;48.130;11.356;2023-09-19T18:51:31;95674.00;;;19.60
54746;BMP180;40640;48.130;11.356;2023-09-19T18:55:35;95680.00;;;19.50
54746;BMP180;40640;48.130;11.356;2023-09-19T18:59:38;95685.00;;;19.50
54746;BMP180;40640;48.130;11.356;2023-09-19T19:03:41;95671.00;;;19.60
54746;BMP180;40640;48.130;11.356;2023-09-19T19:07:46;95682.00;;;19.30
54746;BMP180;40640;48.130;11.356;2023-09-19T19:11:49;95680.00;;;19.10
54746;BMP180;40640;48.130;11.356;2023-09-19T19:15:56;95677.00;;;18.90
54746;BMP180;40640;48.130;11.356;2023-09-19T19:20:00;95677.00;;;18.80
54746;BMP180;40640;48.130;11.356;2023-09-19T19:24:05;95675.00;;;18.80
54746;BMP180;40640;48.130;11.356;2023-09-19T19:28:08;95691.00;;;18.80
54746;BMP180;40640;48.130;11.356;2023-09-19T19:32:11;95688.00;;;18.60
54746;BMP180;40640;48.130;11.356;2023-09-19T19:36:16;95682.00;;;18.60
54746;BMP180;40640;48.130;11.356;2023-09-19T19:40:22;95683.00;;;18.70
54746;BMP180;40640;48.130;11.356;2023-09-19T19:44:25;95680.00;;;18.60
54746;BMP180;40640;48.130;11.356;2023-09-19T19:48:29;95686.00;;;18.50
54746;BMP180;40640;48.130;11.356;2023-09-19T19:52:32;95678.00;;;18.30
54746;BMP180;40640;48.130;11.356;2023-09-19T19:56:37;95688.00;;;18.20
54746;BMP180;40640;48.130;11.356;2023-09-19T20:00:41;95688.00;;;18.30
54746;BMP180;40640;48.130;11.356;2023-09-19T20:04:45;95687.00;;;18.30
54746;BMP180;40640;48.130;11.356;2023-09-19T20:08:48;95679.00;;;18.20
54746;BMP180;40640;48.130;11.356;2023-09-19T20:12:52;95694.00;;;18.00
54746;BMP180;40640;48.130;11.356;2023-09-19T20:16:56;95691.00;;;18.00
54746;BMP180;40640;48.130;11.356;2023-09-19T20:21:05;95706.00;;;17.80
54746;BMP180;40640;48.130;11.356;2023-09-19T20:25:12;95703.00;;;17.80
54746;BMP180;40640;48.130;11.356;2023-09-19T20:29:16;95704.00;;;17.60
54746;BMP180;40640;48.130;11.356;2023-09-19T20:33:23;95706.00;;;17.60
54746;BMP180;40640;48.130;11.356;2023-09-19T20:37:26;95699.00;;;17.40
54746;BMP180;40640;48.130;11.356;2023-09-19T20:41:28;95709.00;;;17.40
54746;BMP180;40640;48.130;11.356;2023-09-19T20:45:33;95709.00;;;17.30
54746;BMP180;40640;48.130;11.356;2023-09-19T20:49:41;95718.00;;;17.10
54746;BMP180;40640;48.130;11.356;2023-09-19T20:53:45;95716.00;;;17.10
54746;BMP180;40640;48.130;11.356;2023-09-19T20:57:48;95721.00;;;17.00
54746;BMP180;40640;48.130;11.356;2023-09-19T21:01:52;95724.00;;;16.90
54746;BMP180;40640;48.130;11.356;2023-09-19T21:06:05;95733.00;;;16.90
54746;BMP180;40640;48.130;11.356;2023-09-19T21:10:09;95711.00;;;16.90
54746;BMP180;40640;48.130;11.356;2023-09-19T21:14:12;95717.00;;;16.80
54746;BMP180;40640;48.130;11.356;2023-09-19T21:18:19;95704.00;;;16.80
54746;BMP180;40640;48.130;11.356;2023-09-19T21:22:22;95708.00;;;16.70
54746;BMP180;40640;48.130;11.356;2023-09-19T21:26:28;95717.00;;;16.80
54746;BMP180;40640;48.130;11.356;2023-09-19T21:30:31;95718.00;;;16.70
54746;BMP180;40640;48.130;11.356;2023-09-19T21:34:35;95721.00;;;16.60
54746;BMP180;40640;48.130;11.356;2023-09-19T21:38:38;95725.00;;;16.60
54746;BMP180;40640;48.130;11.356;2023-09-19T21:42:42;95726.00;;;16.50
54746;BMP180;40640;48.130;11.356;2023-09-19T21:46:45;95726.00;;;16.50
54746;BMP180;40640;48.130;11.356;2023-09-19T21:50:53;95729.00;;;16.40
54746;BMP180;40640;48.130;11.356;2023-09-19T21:54:57;95730.00;;;16.40
54746;BMP180;40640;48.130;11.356;2023-09-19T21:59:00;95724.00;;;16.40
54746;BMP180;40640;48.130;11.356;2023-09-19T22:03:04;95729.00;;;16.40
54746;BMP180;40640;48.130;11.356;2023-09-19T22:07:10;95711.00;;;16.40
54746;BMP180;40640;48.130;11.356;2023-09-19T22:11:13;95723.00;;;16.30
54746;BMP180;40640;48.130;11.356;2023-09-19T22:15:17;95711.00;;;16.20
54746;BMP180;40640;48.130;11.356;2023-09-19T22:19:20;95714.00;;;16.20
54746;BMP180;40640;48.130;11.356;2023-09-19T22:23:24;95707.00;;;16.20
54746;BMP180;40640;48.130;11.356;2023-09-19T22:27:34;95711.00;;;16.20
54746;BMP180;40640;48.130;11.356;2023-09-19T22:31:37;95707.00;;;16.10
54746;BMP180;40640;48.130;11.356;2023-09-19T22:35:45;95707.00;;;16.10
54746;BMP180;40640;48.130;11.356;2023-09-19T22:39:56;95701.00;;;16.00
54746;BMP180;40640;48.130;11.356;2023-09-19T22:44:00;95702.00;;;16.00
54746;BMP180;40640;48.130;11.356;2023-09-19T22:48:04;95709.00;;;15.90
54746;BMP180;40640;48.130;11.356;2023-09-19T22:52:08;95709.00;;;15.90
54746;BMP180;40640;48.130;11.356;2023-09-19T22:56:13;95705.00;;;15.80
54746;BMP180;40640;48.130;11.356;2023-09-19T23:00:17;95705.00;;;15.80
54746;BMP180;40640;48.130;11.356;2023-09-19T23:04:22;95703.00;;;15.80
54746;BMP180;40640;48.130;11.356;2023-09-19T23:08:25;95701.00;;;15.80
54746;BMP180;40640;48.130;11.356;2023-09-19T23:12:30;95697.00;;;15.80
54746;BMP180;40640;48.130;11.356;2023-09-19T23:16:34;95704.00;;;15.70
54746;BMP180;40640;48.130;11.356;2023-09-19T23:20:38;95694.00;;;15.80
54746;BMP180;40640;48.130;11.356;2023-09-19T23:24:44;95693.00;;;15.80